createdAt,value
2017-06-02T00:01:02.797Z,0
2017-06-02T00:03:27.178Z,0
2017-06-02T00:05:51.546Z,0
2017-06-02T00:08:15.964Z,0
2017-06-02T00:12:50.361Z,0
2017-06-02T00:15:06.277Z,0
2017-06-02T00:17:30.681Z,0
2017-06-02T00:19:46.564Z,0
2017-06-02T00:22:10.959Z,0
2017-06-02T00:24:26.846Z,0
2017-06-02T00:26:51.252Z,0
2017-06-02T00:29:15.626Z,0
2017-06-02T00:31:40.017Z,0
2017-06-02T00:34:04.414Z,0
2017-06-02T00:36:28.792Z,0
2017-06-02T00:38:53.192Z,0
2017-06-02T00:41:17.562Z,0
2017-06-02T00:43:41.970Z,0
2017-06-02T00:45:57.975Z,0
2017-06-02T00:48:13.893Z,0
2017-06-02T00:50:38.237Z,0
2017-06-02T00:53:02.614Z,0
2017-06-02T00:55:27.003Z,0
2017-06-02T00:57:51.302Z,0
2017-06-02T01:00:15.687Z,0
2017-06-02T01:02:40.065Z,0
2017-06-02T01:05:04.469Z,0
2017-06-02T01:07:28.839Z,0
2017-06-02T01:09:53.129Z,0
2017-06-02T01:12:17.538Z,0
2017-06-02T01:16:34.774Z,0
2017-06-02T01:18:59.157Z,0
2017-06-02T01:21:23.546Z,0
2017-06-02T01:23:47.928Z,0
2017-06-02T01:26:12.324Z,0
2017-06-02T01:28:36.703Z,0
2017-06-02T01:31:01.027Z,0
2017-06-02T01:33:25.382Z,0
2017-06-02T01:35:49.767Z,0
2017-06-02T01:38:14.169Z,0
2017-06-02T01:40:38.545Z,0
2017-06-02T01:42:54.483Z,0
2017-06-02T01:45:18.836Z,0
2017-06-02T01:47:43.247Z,0
2017-06-02T01:50:07.632Z,0
2017-06-02T01:52:32.016Z,0
2017-06-02T01:54:56.395Z,0
2017-06-02T01:57:20.781Z,0
2017-06-02T01:59:45.180Z,0
2017-06-02T02:02:01.102Z,0
2017-06-02T02:04:25.446Z,0
2017-06-02T02:06:49.835Z,0
2017-06-02T02:09:14.227Z,0
2017-06-02T02:11:38.616Z,0
2017-06-02T02:14:03.002Z,0
2017-06-02T02:16:27.413Z,0
2017-06-02T02:21:01.769Z,0
2017-06-02T02:23:17.674Z,0
2017-06-02T02:25:33.562Z,0
2017-06-02T02:27:57.901Z,0
2017-06-02T02:30:22.329Z,0
2017-06-02T02:32:46.669Z,0
2017-06-02T02:35:11.062Z,0
2017-06-02T02:37:35.457Z,0
2017-06-02T02:39:59.826Z,0
2017-06-02T02:42:24.239Z,0
2017-06-02T02:44:48.629Z,0
2017-06-02T02:47:13.029Z,0
2017-06-02T02:49:37.404Z,0
2017-06-02T02:51:53.329Z,0
2017-06-02T02:54:17.680Z,0
2017-06-02T02:56:42.061Z,0
2017-06-02T02:59:06.349Z,0
2017-06-02T03:01:30.745Z,0
2017-06-02T03:03:46.635Z,0
2017-06-02T03:08:12.338Z,0
2017-06-02T03:10:36.635Z,0
2017-06-02T03:13:01.861Z,0
2017-06-02T03:15:26.143Z,0
2017-06-02T03:17:50.420Z,0
2017-06-02T03:20:06.256Z,0
2017-06-02T03:22:30.485Z,0
2017-06-02T03:24:54.773Z,0
2017-06-02T03:27:19.056Z,0
2017-06-02T03:29:43.348Z,0
2017-06-02T03:32:07.645Z,0
2017-06-02T03:34:31.916Z,0
2017-06-02T03:36:56.207Z,5
2017-06-02T03:39:20.503Z,5
2017-06-02T03:41:44.778Z,5
2017-06-02T03:44:09.018Z,5
2017-06-02T03:46:33.270Z,5
2017-06-02T03:48:57.565Z,10
2017-06-02T03:51:21.849Z,10
2017-06-02T03:53:46.138Z,10
2017-06-02T03:56:10.412Z,15
2017-06-02T03:58:34.755Z,15
2017-06-02T04:00:59.096Z,15
2017-06-02T04:05:24.808Z,20
2017-06-02T04:07:49.120Z,25
2017-06-02T04:10:13.413Z,25
2017-06-02T04:14:39.218Z,30
2017-06-02T04:16:55.090Z,30
2017-06-02T04:21:21.444Z,40
2017-06-02T04:23:45.801Z,50
2017-06-02T04:26:01.731Z,60
2017-06-02T04:28:26.194Z,70
2017-06-02T04:30:50.701Z,80
2017-06-02T04:35:16.905Z,90
2017-06-02T04:37:41.761Z,100
2017-06-02T04:40:06.716Z,105
2017-06-02T04:42:14.844Z,105
2017-06-02T04:44:39.980Z,115
2017-06-02T04:47:05.329Z,125
2017-06-02T04:49:30.787Z,125
2017-06-02T04:51:56.169Z,135
2017-06-02T04:54:21.759Z,140
2017-06-02T04:56:47.504Z,150
2017-06-02T04:59:13.237Z,155
2017-06-02T05:01:39.095Z,155
2017-06-02T05:04:05.061Z,160
2017-06-02T05:06:22.545Z,165
2017-06-02T05:08:40.151Z,135
2017-06-02T05:11:06.387Z,155
2017-06-02T05:13:32.624Z,150
2017-06-02T05:15:58.854Z,145
2017-06-02T05:18:24.967Z,125
2017-06-02T05:20:50.947Z,100
2017-06-02T05:23:17.853Z,110
2017-06-02T05:25:43.648Z,160
2017-06-02T05:28:09.197Z,155
2017-06-02T05:30:34.802Z,150
2017-06-02T05:33:00.405Z,185
2017-06-02T05:35:27.081Z,180
2017-06-02T05:37:52.842Z,215
2017-06-02T05:40:18.599Z,235
2017-06-02T05:42:44.502Z,260
2017-06-02T05:45:10.539Z,265
2017-06-02T05:47:28.144Z,135
2017-06-02T05:49:54.333Z,155
2017-06-02T05:52:11.888Z,195
2017-06-02T05:54:37.870Z,470
2017-06-02T05:57:03.789Z,130
2017-06-02T05:59:21.125Z,140
2017-06-02T06:01:46.862Z,355
2017-06-02T06:06:14.798Z,390
2017-06-02T06:08:40.465Z,345
2017-06-02T06:11:06.124Z,680
2017-06-02T06:13:31.871Z,890
2017-06-02T06:15:57.711Z,540
2017-06-02T06:18:15.065Z,585
2017-06-02T06:20:32.518Z,355
2017-06-02T06:22:49.983Z,455
2017-06-02T06:25:15.972Z,210
2017-06-02T06:27:41.952Z,420
2017-06-02T06:30:07.987Z,195
2017-06-02T06:32:33.840Z,225
2017-06-02T06:37:01.484Z,215
2017-06-02T06:39:27.252Z,190
2017-06-02T06:41:52.887Z,195
2017-06-02T06:44:09.958Z,275
2017-06-02T06:46:35.522Z,275
2017-06-02T06:49:01.137Z,150
2017-06-02T06:51:18.270Z,125
2017-06-02T06:53:43.900Z,110
2017-06-02T06:56:09.428Z,95
2017-06-02T06:58:26.385Z,85
2017-06-02T07:00:51.819Z,80
2017-06-02T07:03:08.643Z,75
2017-06-02T07:05:33.921Z,70
2017-06-02T07:07:59.069Z,70
2017-06-02T07:10:24.239Z,75
2017-06-02T07:12:50.407Z,70
2017-06-02T07:15:07.031Z,70
2017-06-02T07:19:34.268Z,80
2017-06-02T07:21:59.300Z,85
2017-06-02T07:24:24.300Z,75
2017-06-02T07:26:49.208Z,85
2017-06-02T07:29:14.150Z,90
2017-06-02T07:33:50.804Z,90
2017-06-02T07:36:15.691Z,100
2017-06-02T07:40:42.690Z,110
2017-06-02T07:43:07.568Z,115
2017-06-02T07:47:34.536Z,135
2017-06-02T07:49:59.407Z,185
2017-06-02T07:52:24.288Z,335
2017-06-02T07:54:49.212Z,225
2017-06-02T07:57:14.183Z,180
2017-06-02T07:59:39.166Z,195
2017-06-02T08:01:55.629Z,225
2017-06-02T08:04:20.680Z,210
2017-06-02T08:06:45.774Z,185
2017-06-02T08:09:10.866Z,150
2017-06-02T08:11:36.012Z,135
2017-06-02T08:13:52.609Z,130
2017-06-02T08:18:11.346Z,120
2017-06-02T08:20:27.941Z,130
2017-06-02T08:22:52.955Z,130
2017-06-02T08:25:18.009Z,135
2017-06-02T08:27:43.072Z,130
2017-06-02T08:30:08.133Z,140
2017-06-02T08:32:33.151Z,150
2017-06-02T08:34:58.194Z,170
2017-06-02T08:37:23.226Z,175
2017-06-02T08:39:48.233Z,175
2017-06-02T08:42:13.261Z,175
2017-06-02T08:44:38.282Z,180
2017-06-02T08:46:55.808Z,185
2017-06-02T08:49:20.865Z,185
2017-06-02T08:51:45.806Z,200
2017-06-02T08:54:02.305Z,225
2017-06-02T08:56:27.370Z,230
2017-06-02T08:58:52.488Z,225
2017-06-02T09:01:17.679Z,200
2017-06-02T09:03:42.759Z,200
2017-06-02T09:06:07.906Z,225
2017-06-02T09:08:33.108Z,215
2017-06-02T09:13:08.622Z,300
2017-06-02T09:15:33.924Z,290
2017-06-02T09:17:59.236Z,240
2017-06-02T09:20:24.536Z,230
2017-06-02T09:22:49.865Z,260
2017-06-02T09:25:15.308Z,265
2017-06-02T09:27:40.613Z,250
2017-06-02T09:30:05.999Z,240
2017-06-02T09:32:31.540Z,270
2017-06-02T09:34:57.048Z,255
2017-06-02T09:37:22.633Z,245
2017-06-02T09:43:35.569Z,225
2017-06-02T09:46:01.244Z,205
2017-06-02T09:48:26.867Z,190
2017-06-02T09:50:52.455Z,200
2017-06-02T09:53:19.067Z,225
2017-06-02T09:55:44.643Z,235
2017-06-02T09:58:11.238Z,225
2017-06-02T10:00:36.841Z,220
2017-06-02T10:02:54.981Z,220
2017-06-02T10:05:21.649Z,245
2017-06-02T10:07:47.230Z,255
2017-06-02T10:10:12.805Z,250
2017-06-02T10:12:38.496Z,235
2017-06-02T10:15:04.112Z,230
2017-06-02T10:17:29.773Z,240
2017-06-02T10:19:55.379Z,205
2017-06-02T10:22:12.450Z,170
2017-06-02T10:24:39.099Z,185
2017-06-02T10:29:15.556Z,190
2017-06-02T10:31:32.610Z,165
2017-06-02T10:33:49.614Z,210
2017-06-02T10:36:15.119Z,190
2017-06-02T10:38:40.614Z,185
2017-06-02T10:41:06.083Z,180
2017-06-02T10:43:14.534Z,140
2017-06-02T10:45:40.025Z,165
2017-06-02T10:48:05.493Z,175
2017-06-02T10:50:30.949Z,140
2017-06-02T10:52:56.343Z,135
2017-06-02T10:55:21.770Z,135
2017-06-02T10:57:47.175Z,170
2017-06-02T11:00:12.532Z,140
2017-06-02T11:02:37.939Z,175
2017-06-02T11:05:03.336Z,175
2017-06-02T11:09:31.006Z,165
2017-06-02T11:11:56.445Z,160
2017-06-02T11:14:21.868Z,160
2017-06-02T11:18:49.067Z,145
2017-06-02T11:21:14.479Z,135
2017-06-02T11:23:31.322Z,140
2017-06-02T11:25:56.686Z,135
2017-06-02T11:28:22.059Z,135
2017-06-02T11:32:41.078Z,135
2017-06-02T11:35:06.465Z,130
2017-06-02T11:37:31.821Z,130
2017-06-02T11:39:57.156Z,125
2017-06-02T11:42:22.473Z,130
2017-06-02T11:44:47.823Z,110
2017-06-02T11:47:13.125Z,110
2017-06-02T11:49:29.934Z,125
2017-06-02T11:53:58.381Z,120
2017-06-02T11:56:23.683Z,110
2017-06-02T12:00:51.163Z,115
2017-06-02T12:03:17.460Z,95
2017-06-02T12:05:42.703Z,110
2017-06-02T12:08:07.969Z,105
2017-06-02T12:10:33.211Z,110
2017-06-02T12:12:58.398Z,105
2017-06-02T12:15:23.640Z,115
2017-06-02T12:17:48.881Z,90
2017-06-02T12:20:14.100Z,85
2017-06-02T12:22:39.343Z,85
2017-06-02T12:26:58.192Z,85
2017-06-02T12:29:14.916Z,85
2017-06-02T12:31:40.096Z,105
2017-06-02T12:34:05.279Z,110
2017-06-02T12:36:30.477Z,85
2017-06-02T12:38:55.681Z,80
2017-06-02T12:41:12.355Z,75
2017-06-02T12:43:37.542Z,75
2017-06-02T12:46:02.726Z,80
2017-06-02T12:48:27.908Z,85
2017-06-02T12:50:53.001Z,80
2017-06-02T12:53:18.107Z,80
2017-06-02T12:55:43.250Z,80
2017-06-02T12:58:08.398Z,80
2017-06-02T13:00:33.565Z,75
2017-06-02T13:02:58.676Z,75
2017-06-02T13:09:28.185Z,75
2017-06-02T13:11:53.270Z,80
2017-06-02T13:14:18.415Z,80
2017-06-02T13:16:43.530Z,80
2017-06-02T13:18:43.156Z,80
2017-06-02T13:20:59.778Z,85
2017-06-02T13:23:24.897Z,80
2017-06-02T13:25:41.492Z,80
2017-06-02T13:28:06.609Z,80
2017-06-02T13:30:23.207Z,85
2017-06-02T13:32:48.350Z,95
2017-06-02T13:35:14.510Z,80
2017-06-02T13:39:41.451Z,85
2017-06-02T13:44:17.326Z,90
2017-06-02T13:46:42.464Z,90
2017-06-02T13:49:07.628Z,90
2017-06-02T13:51:24.279Z,95
2017-06-02T13:57:53.900Z,95
2017-06-02T14:02:21.274Z,90
2017-06-02T14:04:46.499Z,85
2017-06-02T14:07:11.663Z,85
2017-06-02T14:09:37.824Z,75
2017-06-02T14:12:03.010Z,65
2017-06-02T14:14:29.190Z,65
2017-06-02T14:19:05.155Z,75
2017-06-02T14:23:41.066Z,65
2017-06-02T14:26:06.204Z,60
2017-06-02T14:28:31.292Z,60
2017-06-02T14:30:56.407Z,60
2017-06-02T14:33:21.501Z,55
2017-06-02T14:35:46.595Z,55
2017-06-02T14:40:22.379Z,40
2017-06-02T14:42:47.443Z,40
2017-06-02T14:45:03.966Z,40
2017-06-02T14:47:28.988Z,35
2017-06-02T14:49:54.013Z,35
2017-06-02T14:52:19.011Z,35
2017-06-02T14:54:44.026Z,35
2017-06-02T14:57:08.987Z,35
2017-06-02T14:59:25.448Z,35
2017-06-02T15:01:41.856Z,40
2017-06-02T15:04:06.769Z,35
2017-06-02T15:06:31.567Z,35
2017-06-02T15:08:56.427Z,35
2017-06-02T15:11:21.286Z,30
2017-06-02T15:13:46.107Z,25
2017-06-02T15:16:10.879Z,25
2017-06-02T15:18:35.673Z,25
2017-06-02T15:21:00.452Z,20
2017-06-02T15:23:25.271Z,20
2017-06-02T15:25:50.107Z,20
2017-06-02T15:28:14.867Z,20
2017-06-02T15:30:39.638Z,20
2017-06-02T15:33:04.395Z,25
2017-06-02T15:35:29.143Z,25
2017-06-02T15:37:53.864Z,25
2017-06-02T15:40:19.572Z,30
2017-06-02T15:42:45.425Z,30
2017-06-02T15:45:10.080Z,30
2017-06-02T15:47:35.350Z,35
2017-06-02T15:50:00.843Z,35
2017-06-02T15:52:25.933Z,30
2017-06-02T15:54:50.575Z,30
2017-06-02T15:57:15.163Z,35
2017-06-02T15:59:40.805Z,35
2017-06-02T16:02:05.497Z,35
2017-06-02T16:04:30.125Z,35
2017-06-02T16:06:55.781Z,35
2017-06-02T16:09:20.385Z,35
2017-06-02T16:11:45.047Z,35
2017-06-02T16:14:09.640Z,30
2017-06-02T16:16:34.245Z,30
2017-06-02T16:18:58.931Z,30
2017-06-02T16:21:24.580Z,30
2017-06-02T16:23:49.219Z,30
2017-06-02T16:28:24.429Z,30
2017-06-02T16:30:49.045Z,30
2017-06-02T16:33:13.560Z,25
2017-06-02T16:35:38.160Z,25
2017-06-02T16:38:03.785Z,25
2017-06-02T16:40:28.389Z,25
2017-06-02T16:42:44.505Z,25
2017-06-02T16:45:09.911Z,20
2017-06-02T16:47:34.607Z,20
2017-06-02T16:50:29.835Z,20
2017-06-02T16:52:54.469Z,20
2017-06-02T16:55:53.669Z,15
2017-06-02T16:58:18.351Z,15
2017-06-02T17:00:48.766Z,15
2017-06-02T17:03:13.402Z,15
2017-06-02T17:05:38.101Z,15
2017-06-02T17:08:02.769Z,15
2017-06-02T17:10:28.004Z,15
2017-06-02T17:12:53.279Z,15
2017-06-02T17:15:17.992Z,15
2017-06-02T17:17:42.641Z,15
2017-06-02T17:20:08.313Z,15
2017-06-02T17:22:51.178Z,15
2017-06-02T17:25:19.224Z,15
2017-06-02T17:27:43.883Z,20
2017-06-02T17:30:08.397Z,20
2017-06-02T17:32:24.660Z,20
2017-06-02T17:34:49.240Z,20
2017-06-02T17:37:13.863Z,20
2017-06-02T17:39:38.427Z,20
2017-06-02T17:42:03.083Z,20
2017-06-02T17:46:29.874Z,25
2017-06-02T17:48:54.648Z,20
2017-06-02T17:51:19.336Z,20
2017-06-02T17:53:44.076Z,20
2017-06-02T17:58:19.495Z,25
2017-06-02T18:00:44.198Z,20
2017-06-02T18:03:00.402Z,20
2017-06-02T18:05:25.073Z,20
2017-06-02T18:07:49.779Z,20
2017-06-02T18:10:21.322Z,20
2017-06-02T18:12:46.008Z,15
2017-06-02T18:17:05.181Z,15
2017-06-02T18:19:29.787Z,15
2017-06-02T18:21:55.289Z,15
2017-06-02T18:24:19.938Z,10
2017-06-02T18:26:44.471Z,10
2017-06-02T18:29:09.103Z,10
2017-06-02T18:31:33.682Z,10
2017-06-02T18:33:58.276Z,10
2017-06-02T18:36:22.873Z,10
2017-06-02T18:38:47.460Z,10
2017-06-02T18:41:12.061Z,10
2017-06-02T18:45:38.274Z,5
2017-06-02T18:48:02.908Z,5
2017-06-02T18:50:27.496Z,5
2017-06-02T18:52:43.621Z,5
2017-06-02T18:57:02.283Z,5
2017-06-02T18:59:26.985Z,5
2017-06-02T19:01:51.655Z,5
2017-06-02T19:04:16.253Z,5
2017-06-02T19:06:40.842Z,0
2017-06-02T19:09:05.428Z,0
2017-06-02T19:15:24.489Z,0
2017-06-02T19:17:49.012Z,0
2017-06-02T19:19:56.648Z,0
2017-06-02T19:22:21.198Z,0
2017-06-02T19:24:45.683Z,0
2017-06-02T19:29:11.641Z,0
2017-06-02T19:31:27.722Z,0
2017-06-02T19:33:43.855Z,0
2017-06-02T19:36:08.415Z,0
2017-06-02T19:38:33.007Z,0
2017-06-02T19:40:49.149Z,0
2017-06-02T19:43:13.687Z,0
2017-06-02T19:47:39.672Z,0
2017-06-02T19:50:04.222Z,0
2017-06-02T19:52:28.670Z,0
2017-06-02T19:54:36.238Z,0
2017-06-02T19:56:52.239Z,0
2017-06-02T19:59:16.807Z,0
2017-06-02T20:01:41.398Z,0
2017-06-02T20:03:48.964Z,0
2017-06-02T20:06:04.986Z,0
2017-06-02T20:08:21.126Z,0
2017-06-02T20:10:37.226Z,0
2017-06-02T20:13:01.768Z,0
2017-06-02T20:15:26.378Z,0
2017-06-02T20:17:50.953Z,0
2017-06-02T20:20:15.530Z,0
2017-06-02T20:22:40.031Z,0
2017-06-02T20:24:56.172Z,0
2017-06-02T20:27:20.747Z,0
2017-06-02T20:29:45.331Z,0
2017-06-02T20:32:01.447Z,0
2017-06-02T20:34:26.028Z,0
2017-06-02T20:36:50.595Z,0
2017-06-02T20:43:18.801Z,0
2017-06-02T20:47:36.321Z,0
2017-06-02T20:52:02.395Z,0
2017-06-02T20:54:27.246Z,0
2017-06-02T20:56:51.794Z,0
2017-06-02T20:59:16.281Z,0
2017-06-02T21:03:50.901Z,0
2017-06-02T21:06:06.903Z,0
2017-06-02T21:08:31.384Z,0
2017-06-02T21:10:55.888Z,0
2017-06-02T21:13:11.913Z,0
2017-06-02T21:15:36.363Z,0
2017-06-02T21:17:52.288Z,0
2017-06-02T21:20:16.746Z,0
2017-06-02T21:22:41.237Z,0
2017-06-02T21:26:50.032Z,0
2017-06-02T21:29:14.482Z,0
2017-06-02T21:31:38.952Z,0
2017-06-02T21:34:03.352Z,0
2017-06-02T21:36:19.289Z,0
2017-06-02T21:38:43.756Z,0
2017-06-02T21:40:59.770Z,0
2017-06-02T21:43:24.213Z,0
2017-06-02T21:45:48.724Z,0
2017-06-02T21:48:13.206Z,0
2017-06-02T21:50:29.246Z,0
2017-06-02T21:52:45.219Z,0
2017-06-02T21:57:11.188Z,0
2017-06-02T21:59:35.736Z,0
2017-06-02T22:02:00.217Z,0
2017-06-02T22:04:16.256Z,0
2017-06-02T22:06:40.691Z,0
2017-06-02T22:09:05.195Z,0
2017-06-02T22:11:29.665Z,0
2017-06-02T22:17:57.008Z,0
2017-06-02T22:20:21.456Z,0
2017-06-02T22:22:37.389Z,0
2017-06-02T22:25:01.843Z,0
2017-06-02T22:27:26.322Z,0
2017-06-02T22:31:32.174Z,0
2017-06-02T22:33:48.150Z,0
2017-06-02T22:36:04.106Z,0
2017-06-02T22:38:28.459Z,0
2017-06-02T22:42:54.305Z,0
2017-06-02T22:45:18.675Z,0
2017-06-02T22:47:43.102Z,0
2017-06-02T22:52:00.459Z,0
2017-06-02T22:54:24.793Z,0
2017-06-02T22:56:49.180Z,0
2017-06-02T22:59:13.472Z,0
2017-06-02T23:01:29.420Z,0
2017-06-02T23:03:53.749Z,0
2017-06-02T23:06:18.140Z,0
2017-06-02T23:08:42.429Z,0
2017-06-02T23:11:06.807Z,0
2017-06-02T23:15:41.199Z,0
2017-06-02T23:18:05.550Z,0
2017-06-02T23:20:29.942Z,0
2017-06-02T23:22:45.866Z,0
2017-06-02T23:25:10.213Z,0
2017-06-02T23:27:26.152Z,0
2017-06-02T23:29:33.605Z,0
2017-06-02T23:31:57.974Z,0
2017-06-02T23:34:22.261Z,0
2017-06-02T23:36:46.550Z,0
2017-06-02T23:39:02.392Z,0
2017-06-02T23:41:18.330Z,0
2017-06-02T23:43:42.618Z,0
2017-06-02T23:46:06.895Z,0
2017-06-02T23:48:31.178Z,0
2017-06-02T23:50:55.472Z,0
2017-06-02T23:53:19.884Z,0
2017-06-02T23:55:44.263Z,0
2017-06-02T23:58:08.662Z,0
